Date,TemperatureHighF,TemperatureAvgF,TemperatureLowF,DewpointHighF,DewpointAvgF,DewpointLowF,HumidityHigh,HumidityAvg,HumidityLow,PressureMaxIn,PressureMinIn,WindSpeedMaxMPH,WindSpeedAvgMPH,GustSpeedMaxMPH,PrecipitationSumIn
2013-11-1,55,50,49,50,49,48,97,95,82,29.84,29.80,0,0,0,0.00
2013-11-2,59,50,43,45,43,41,96,80,54,30.20,29.94,0,0,0,0.00
2013-11-3,60,46,34,40,33,-100,96,75,45,30.33,30.22,0,0,0,0.00
2013-11-4,55,47,42,49,41,-100,92,86,75,30.32,30.27,0,0,0,0.00
2013-11-5,70,58,53,52,46,42,69,65,52,30.34,30.18,0,0,0,0.00
2013-11-6,60,56,47,51,46,-100,94,71,63,30.20,30.10,0,0,0,0.55
2013-11-7,43,39,36,38,35,34,94,87,74,30.39,30.35,0,0,0,0.00
2013-11-8,59,39,31,40,36,29,96,88,44,30.42,30.24,0,0,0,0.01
2013-11-9,61,52,37,45,41,36,97,69,44,30.31,30.21,0,0,0,0.00
2013-11-10,65,52,42,45,40,38,96,67,38,30.36,30.30,0,0,0,0.00
2013-11-11,55,53,38,46,45,37,96,75,69,30.32,30.20,0,0,0,0.00
2013-11-12,42,36,32,36,29,22,91,76,45,30.67,30.49,0,0,0,0.06
2013-11-13,30,27,25,26,24,22,89,87,83,30.75,30.47,0,0,0,0.00
2013-11-14,28,26,23,25,24,22,93,91,89,30.47,30.43,0,0,0,0.00
2013-11-15,57,50,39,52,46,35,93,88,80,30.21,30.05,0,0,0,0.06
2013-11-16,66,61,55,63,58,-100,95,93,88,30.08,29.91,0,0,0,0.02
2013-11-17,75,68,57,70,66,56,97,92,74,29.93,29.68,0,0,0,1.12
2013-11-18,62,53,38,49,39,31,98,62,38,30.27,30.07,0,0,0,0.01
2013-11-19,50,44,-90,34,30,-100,79,57,45,30.32,30.21,0,0,0,0.00
2013-11-20,64,52,33,41,36,-100,92,58,38,30.22,30.10,0,0,0,0.00
2013-11-21,66,59,48,58,53,43,95,79,66,30.24,30.14,0,0,0,0.15
2013-11-22,60,53,45,59,51,42,97,93,89,30.39,30.19,0,0,0,0.34
2013-11-23,45,39,29,39,27,-100,90,66,37,30.61,30.43,0,0,0,0.00
2013-11-24,34,28,22,20,17,-100,78,63,46,30.70,30.50,0,0,0,0.00
2013-11-25,40,34,31,34,26,17,94,72,48,30.50,30.19,0,0,0,0.16
2013-11-26,39,36,35,36,33,-100,96,91,72,30.22,29.99,0,0,0,0.05
2013-11-27,32,26,19,18,14,-100,88,63,48,30.41,30.26,0,0,0,0.00
2013-11-28,45,26,17,24,18,-100,92,76,39,30.50,30.41,0,0,0,0.00
2013-11-29,54,41,24,32,29,22,94,66,41,30.61,30.46,0,0,0,0.00
2013-11-30,58,48,25,36,29,24,96,53,30,30.47,30.25,0,0,0,0.00